Ernest Campbell — WDB3005 — position and weather

sailwx.info

Track history (hours):
 
Tides and Currents Weather Stations Pressure Air Temp Water Temp Dewpoint Dewpoint Depression Visibility Wind Speed Wind Dir Waves Ship Positions

Ernest Campbell

Owner: Campbell Leasing Company LLC, Wrangell, AK. More information available from US FCC via Universal Licensing System and Coast Guard Vessel Documentation Center.

Last reported at 2015-Mar-29 02:33 UTC. Time now 2015-Mar-29 03:09 UTC.
Position N 47°16' W 122°25'.

Length 33 m; draft 4.6 m.

Type: Tow > 200 m length. MMSI: 366882320.

Date/timePositionNaut miles runAvg speedWind from/ knotsBaromVisibWave heightAir tempDewpointWater temp
2015-Mar-29 02:33N 47°16' W 122°25'0 0.0
2015-Mar-29 01:33N 47°16' W 122°25'0 0.0
2015-Mar-29 00:33N 47°16' W 122°25'0 0.0
2015-Mar-28 23:33N 47°16' W 122°25'0 0.0
2015-Mar-28 22:33N 47°16' W 122°25'0 0.0
2015-Mar-28 21:33N 47°16' W 122°25'0 0.0
2015-Mar-28 20:33N 47°16' W 122°25'0 0.0
2015-Mar-28 19:33N 47°16' W 122°25'0 0.0
2015-Mar-28 18:33N 47°16' W 122°25'0 0.0
2015-Mar-28 17:33N 47°16' W 122°25'0 0.0
2015-Mar-28 16:33N 47°16' W 122°25'0 0.0
2015-Mar-28 15:33N 47°16' W 122°25'0 0.0
2015-Mar-28 14:33N 47°16' W 122°25'0 0.0
2015-Mar-28 13:33N 47°16' W 122°25'0 0.0
2015-Mar-28 12:33N 47°16' W 122°25'0 0.0
2015-Mar-28 11:33N 47°16' W 122°25'0 0.0
2015-Mar-28 10:33N 47°16' W 122°25'0 0.0
2015-Mar-28 09:33N 47°16' W 122°25'0 0.0
2015-Mar-28 08:33N 47°16' W 122°25'0 0.0
2015-Mar-28 07:33N 47°16' W 122°25'0 0.0
2015-Mar-28 06:33N 47°16' W 122°25'0 0.0
2015-Mar-28 05:33N 47°16' W 122°25'0 0.0
2015-Mar-28 04:33N 47°16' W 122°25'0 0.0
2015-Mar-28 03:33N 47°16' W 122°25'0 0.3
2015-Mar-28 02:33N 47°16' W 122°25'1 0.6
2015-Mar-28 01:33N 47°16' W 122°24'0 0.0
2015-Mar-28 00:33N 47°16' W 122°24'0 0.0
2015-Mar-27 23:33N 47°16' W 122°24'0 0.0
2015-Mar-27 22:33N 47°16' W 122°24'0 0.5
2015-Mar-27 21:33N 47°16' W 122°25'0 0.0
2015-Mar-27 20:33N 47°16' W 122°25'0 0.0
2015-Mar-27 19:33N 47°16' W 122°25'0 0.0
2015-Mar-27 18:33N 47°16' W 122°25'0 0.0
2015-Mar-27 17:33N 47°16' W 122°25'0 0.0
2015-Mar-27 16:33N 47°16' W 122°25'0 0.0
2015-Mar-27 15:33N 47°16' W 122°25'0 0.0
2015-Mar-27 14:33N 47°16' W 122°25'1 0.7
2015-Mar-27 13:33N 47°17' W 122°26'1 2.1
2015-Mar-27 13:00N 47°18' W 122°27'3 6.1
2015-Mar-27 12:33N 47°20' W 122°27'0 6.3
2015-Mar-27 12:29N 47°21' W 122°27'5 5.7
2015-Mar-27 11:33N 47°25' W 122°24'1 7.3
2015-Mar-27 11:29N 47°26' W 122°24'6 6.8
2015-Mar-27 10:33N 47°32' W 122°27'0 6.1
2015-Mar-27 10:30N 47°32' W 122°27'6 6.7
2015-Mar-27 09:33N 47°38' W 122°28'0 6.0
2015-Mar-27 09:30N 47°39' W 122°28'6 6.6
2015-Mar-27 08:33N 47°45' W 122°27'0 5.3
2015-Mar-27 08:30N 47°45' W 122°27'6 6.6
2015-Mar-27 07:33N 47°51' W 122°29'0 5.7
2015-Mar-27 07:30N 47°52' W 122°29'7 7.0
2015-Mar-27 06:33N 47°57' W 122°35'8 7.5
2015-Mar-27 05:32N 48°04' W 122°40'8 8.0
2015-Mar-27 04:33N 48°10' W 122°47'8 8.2
2015-Mar-27 03:33N 48°11' W 122°59'9 8.7
2015-Mar-27 02:33N 48°11' W 123°12'8 8.1
2015-Mar-27 01:33N 48°08' W 123°23'1 1.1
2015-Mar-27 00:33N 48°08' W 123°25'0 0.0
2015-Mar-26 23:33N 48°08' W 123°25'0 0.1
2015-Mar-26 22:33N 48°08' W 123°25'0 0.1
2015-Mar-26 21:32N 48°08' W 123°25'0 0.0
2015-Mar-26 20:12N 48°08' W 123°25'0 0.1
2015-Mar-26 19:32N 48°08' W 123°25'0 0.0
2015-Mar-26 18:30N 48°08' W 123°25'0 0.0
2015-Mar-26 17:33N 48°08' W 123°25'0 0.1
2015-Mar-26 16:31N 48°08' W 123°25'2 2.3
2015-Mar-26 15:33N 48°08' W 123°22'6 5.7
2015-Mar-26 14:31N 48°11' W 123°14'6 5.9
2015-Mar-26 13:28N 48°13' W 123°05'8 6.7
2015-Mar-26 12:20N 48°12' W 122°54'13 7.1
2015-Mar-26 10:31N 48°05' W 122°38'7 8.5
2015-Mar-26 09:40N 47°58' W 122°34'1 8.8
2015-Mar-26 09:33N 47°57' W 122°33'1 7.4
2015-Mar-26 09:25N 47°57' W 122°32'7 7.5
2015-Mar-26 08:33N 47°51' W 122°27'0 6.6
2015-Mar-26 08:30N 47°51' W 122°27'7 7.6
2015-Mar-26 07:33N 47°43' W 122°26'0 6.7
2015-Mar-26 07:30N 47°43' W 122°26'6 6.7
2015-Mar-26 06:33N 47°37' W 122°24'0 5.7
2015-Mar-26 06:30N 47°37' W 122°23'2 4.8
2015-Mar-26 06:10N 47°36' W 122°21'2 3.1
2015-Mar-26 05:33N 47°34' W 122°21'0 0.0
2015-Mar-26 04:33N 47°34' W 122°21'0 0.1
2015-Mar-26 04:30N 47°34' W 122°21'0 0.0
2015-Mar-26 03:33N 47°34' W 122°21'0 0.0
2015-Mar-26 03:29N 47°34' W 122°21'0 0.0
2015-Mar-26 02:33N 47°34' W 122°21'0 0.0
2015-Mar-26 02:30N 47°34' W 122°21'0 0.0
2015-Mar-26 01:33N 47°34' W 122°21'0 0.0
2015-Mar-26 01:30N 47°34' W 122°21'0 0.0
2015-Mar-26 00:33N 47°34' W 122°21'0 0.0
2015-Mar-26 00:30N 47°34' W 122°21'0 0.0
2015-Mar-25 23:33N 47°34' W 122°21'0 0.0
2015-Mar-25 23:30N 47°34' W 122°21'0 0.0
2015-Mar-25 22:33N 47°34' W 122°21'0 0.0
2015-Mar-25 22:30N 47°34' W 122°21'0 0.0
2015-Mar-25 21:33N 47°34' W 122°21'0 0.0
2015-Mar-25 21:29N 47°34' W 122°21'0 0.0
2015-Mar-25 20:33N 47°34' W 122°21'0 0.0
2015-Mar-25 20:24N 47°34' W 122°21'0 0.0
2015-Mar-25 19:33N 47°34' W 122°21'0 0.0
2015-Mar-25 19:29N 47°34' W 122°21'0 0.0
2015-Mar-25 18:33N 47°34' W 122°21'0 0.0
2015-Mar-25 18:29N 47°34' W 122°21'0 0.0
2015-Mar-25 17:33N 47°34' W 122°21'0 0.0
2015-Mar-25 17:28N 47°34' W 122°21'0 0.0
2015-Mar-25 16:33N 47°34' W 122°21'0 0.1
2015-Mar-25 16:29N 47°34' W 122°21'0 0.0
2015-Mar-25 15:33N 47°34' W 122°21'0 0.0
2015-Mar-25 15:29N 47°34' W 122°21'0 0.0
2015-Mar-25 14:33N 47°34' W 122°21'0 0.0
2015-Mar-25 13:46N 47°34' W 122°21'0 0.0
2015-Mar-25 13:33N 47°34' W 122°21'0 0.2
2015-Mar-25 13:32N 47°34' W 122°21'0 0.0
2015-Mar-25 12:33N 47°34' W 122°21'0 0.0
2015-Mar-25 12:32N 47°34' W 122°21'0 0.0
2015-Mar-25 11:33N 47°34' W 122°21'0 0.0
2015-Mar-25 11:31N 47°34' W 122°21'0 0.0
2015-Mar-25 10:33N 47°34' W 122°21'0 0.2
2015-Mar-25 10:31N 47°34' W 122°21'0 0.0
2015-Mar-25 09:33N 47°34' W 122°21'0 1.0
2015-Mar-25 09:31N 47°34' W 122°21'0 0.0
2015-Mar-25 08:33N 47°34' W 122°21'0 0.0
2015-Mar-25 08:31N 47°34' W 122°21'0 0.0
2015-Mar-25 07:33N 47°34' W 122°21'0 0.1
2015-Mar-25 07:31N 47°34' W 122°21'0 0.0
2015-Mar-25 06:33N 47°34' W 122°21'0 0.0
2015-Mar-25 06:31N 47°34' W 122°21'0 0.0
2015-Mar-25 05:56N 47°34' W 122°21'0 0.0
2015-Mar-25 05:33N 47°34' W 122°21'0 0.0
2015-Mar-25 04:33N 47°34' W 122°21'0 0.0
2015-Mar-25 04:31N 47°34' W 122°21'0 0.0
2015-Mar-25 03:33N 47°34' W 122°21'0 0.0
2015-Mar-25 03:31N 47°34' W 122°21'0 0.0
2015-Mar-25 02:33N 47°34' W 122°21'0 0.0
2015-Mar-25 02:30N 47°34' W 122°21'0 0.0
2015-Mar-25 01:33N 47°34' W 122°21'0 0.0
2015-Mar-25 01:30N 47°34' W 122°21'0 0.0
2015-Mar-25 00:33N 47°34' W 122°21'0 0.1
2015-Mar-25 00:30N 47°34' W 122°21'0 0.0
2015-Mar-24 23:33N 47°34' W 122°21'0 0.0
2015-Mar-24 23:30N 47°34' W 122°21'0 0.0
2015-Mar-24 22:33N 47°34' W 122°21'0 0.1
2015-Mar-24 22:30N 47°34' W 122°21'0 0.0
2015-Mar-24 21:33N 47°34' W 122°21'0 0.1
2015-Mar-24 21:30N 47°34' W 122°21'0 0.0
2015-Mar-24 20:33N 47°34' W 122°21'0 0.0
2015-Mar-24 20:30N 47°34' W 122°21'0 0.0
2015-Mar-24 19:33N 47°34' W 122°21'0 0.1
2015-Mar-24 19:29N 47°34' W 122°21'0 0.0
2015-Mar-24 18:33N 47°34' W 122°21'0 0.0
2015-Mar-24 18:30N 47°34' W 122°21'0 0.0
2015-Mar-24 17:33N 47°34' W 122°21'0 0.0
2015-Mar-24 17:29N 47°34' W 122°21'0 0.0
2015-Mar-24 16:33N 47°34' W 122°21'0 0.1
2015-Mar-24 16:29N 47°34' W 122°21'0 0.0
2015-Mar-24 15:33N 47°34' W 122°21'0 0.0
2015-Mar-24 15:29N 47°34' W 122°21'0 0.0
2015-Mar-24 14:33N 47°34' W 122°21'0 0.0
2015-Mar-24 14:29N 47°34' W 122°21'0 0.0
2015-Mar-24 13:33N 47°34' W 122°21'0 0.0
2015-Mar-24 13:29N 47°34' W 122°21'0 0.0
2015-Mar-24 12:33N 47°34' W 122°21'0 0.1
2015-Mar-24 12:29N 47°34' W 122°21'0 0.0
2015-Mar-24 11:33N 47°34' W 122°21'0 0.0
2015-Mar-24 11:29N 47°34' W 122°21'0 0.0
2015-Mar-24 10:33N 47°34' W 122°21'0 0.1
2015-Mar-24 10:29N 47°34' W 122°21'0 0.0
2015-Mar-24 09:33N 47°34' W 122°21'0 0.0
2015-Mar-24 09:07N 47°34' W 122°21'0 0.0
2015-Mar-24 08:33N 47°34' W 122°21'0 0.0
2015-Mar-24 08:31N 47°34' W 122°21'0 0.0
2015-Mar-24 07:33N 47°34' W 122°21'0 0.0
2015-Mar-24 07:31N 47°34' W 122°21'0 0.0
2015-Mar-24 06:33N 47°34' W 122°21'0 0.0
2015-Mar-24 06:31N 47°34' W 122°21'0 0.0
2015-Mar-24 06:06N 47°34' W 122°21'0 0.0
2015-Mar-24 05:33N 47°34' W 122°21'0 0.0
2015-Mar-24 04:33N 47°34' W 122°21'0 0.2
2015-Mar-24 04:31N 47°34' W 122°21'0 0.0
2015-Mar-24 03:33N 47°34' W 122°21'0 0.0
2015-Mar-24 03:31N 47°34' W 122°21'0 0.0
2015-Mar-24 02:33N 47°34' W 122°21'0 0.1
2015-Mar-24 02:31N 47°34' W 122°21'0 0.0
2015-Mar-24 01:33N 47°34' W 122°21'0 0.0
2015-Mar-24 01:31N 47°34' W 122°21'0 0.0
2015-Mar-24 00:33N 47°34' W 122°21'0 0.0
2015-Mar-24 00:31N 47°34' W 122°21'0 0.0
2015-Mar-23 23:33N 47°34' W 122°21'0 0.0
2015-Mar-23 23:30N 47°34' W 122°21'0 0.0
2015-Mar-23 22:33N 47°34' W 122°21'0 0.0
2015-Mar-23 22:30N 47°34' W 122°21'1 0.6
2015-Mar-23 21:33N 47°35' W 122°21'0 0.0
2015-Mar-23 21:30N 47°35' W 122°21'0 0.2
2015-Mar-23 20:33N 47°35' W 122°21'0 1.7
2015-Mar-23 20:30N 47°35' W 122°21'0 0.3
2015-Mar-23 19:33N 47°34' W 122°21'0 0.0
2015-Mar-23 19:30N 47°34' W 122°21'0 0.0
2015-Mar-23 18:33N 47°34' W 122°21'0 0.0
2015-Mar-23 18:30N 47°34' W 122°21'0 0.0
2015-Mar-23 17:33N 47°34' W 122°21'0 0.6
2015-Mar-23 17:30N 47°34' W 122°21'0 0.0
2015-Mar-23 16:33N 47°34' W 122°21'0 0.0
2015-Mar-23 16:30N 47°34' W 122°21'0 0.0
2015-Mar-23 15:33N 47°34' W 122°21'0 0.0
2015-Mar-23 15:30N 47°34' W 122°21'1 0.6
2015-Mar-23 14:33N 47°35' W 122°21'0 1.7
2015-Mar-23 14:24N 47°35' W 122°21'0 0.3
2015-Mar-23 13:33N 47°34' W 122°21'0 0.0
2015-Mar-23 13:29N 47°34' W 122°21'0 0.0
2015-Mar-23 12:33N 47°34' W 122°21'0 0.5
2015-Mar-23 12:29N 47°34' W 122°21'0 0.0
2015-Mar-23 11:33N 47°34' W 122°21'0 0.5
2015-Mar-23 11:29N 47°34' W 122°21'0 0.0
2015-Mar-23 10:33N 47°34' W 122°21'0 0.5
2015-Mar-23 10:29N 47°34' W 122°21'0 0.0
2015-Mar-23 09:33N 47°34' W 122°21'0 0.0
2015-Mar-23 09:29N 47°34' W 122°21'0 0.0
2015-Mar-23 08:33N 47°34' W 122°21'0 0.0
2015-Mar-23 08:18N 47°34' W 122°21'0 0.0
2015-Mar-23 07:33N 47°34' W 122°21'0 0.0
2015-Mar-23 07:33N 47°34' W 122°21'0 0.0
2015-Mar-23 06:33N 47°34' W 122°21'0 2.2
2015-Mar-23 06:32N 47°34' W 122°21'0 0.1
2015-Mar-23 06:02N 47°34' W 122°21'0 0.1
2015-Mar-23 05:33N 47°34' W 122°21'0 0.0
2015-Mar-23 04:33N 47°34' W 122°21'0 0.0
2015-Mar-23 04:32N 47°34' W 122°21'0 0.0
2015-Mar-23 03:33N 47°34' W 122°21'0 0.0
2015-Mar-23 03:17N 47°34' W 122°21'0 0.1
2015-Mar-23 02:33N 47°34' W 122°21'0 0.4
2015-Mar-23 02:27N 47°34' W 122°21'0 0.0
2015-Mar-23 01:33N 47°34' W 122°21'0 1.1
2015-Mar-23 01:31N 47°34' W 122°21'0 0.0
2015-Mar-23 00:33N 47°34' W 122°21'0 0.0
2015-Mar-23 00:31N 47°34' W 122°21'0 0.0
2015-Mar-22 23:33N 47°34' W 122°21'0 0.0
2015-Mar-22 23:31N 47°34' W 122°21'0 0.0
2015-Mar-22 22:33N 47°34' W 122°21'0 0.0
2015-Mar-22 22:31N 47°34' W 122°21'0 0.0
2015-Mar-22 21:33N 47°34' W 122°21'0 0.9
2015-Mar-22 21:31N 47°34' W 122°21'0 0.0
2015-Mar-22 20:33N 47°34' W 122°21'0 0.0
2015-Mar-22 20:31N 47°34' W 122°21'0 0.0
2015-Mar-22 19:33N 47°34' W 122°21'0 0.0
2015-Mar-22 19:31N 47°34' W 122°21'0 0.0
2015-Mar-22 18:33N 47°34' W 122°21'0 0.9
2015-Mar-22 18:31N 47°34' W 122°21'0 0.0
2015-Mar-22 17:33N 47°34' W 122°21'0 0.8
2015-Mar-22 17:31N 47°34' W 122°21'0 0.0
2015-Mar-22 16:33N 47°34' W 122°21'0 0.0
2015-Mar-22 16:30N 47°34' W 122°21'0 0.0
2015-Mar-22 15:33N 47°34' W 122°21'0 0.0
2015-Mar-22 15:29N 47°34' W 122°21'0 0.0
2015-Mar-22 14:33N 47°34' W 122°21'0 0.0
2015-Mar-22 14:30N 47°34' W 122°21'0 0.0
2015-Mar-22 13:33N 47°34' W 122°21'0 0.8
2015-Mar-22 13:30N 47°34' W 122°21'0 0.0
2015-Mar-22 12:33N 47°34' W 122°21'0 0.7
2015-Mar-22 12:30N 47°34' W 122°21'0 0.0
2015-Mar-22 11:33N 47°34' W 122°21'0 0.7
2015-Mar-22 11:30N 47°34' W 122°21'0 0.0
2015-Mar-22 10:33N 47°34' W 122°21'0 0.1
2015-Mar-22 10:14N 47°34' W 122°21'0 0.1
2015-Mar-22 09:33N 47°34' W 122°21'0 0.6
2015-Mar-22 09:29N 47°34' W 122°21'0 0.0
2015-Mar-22 08:33N 47°34' W 122°21'0 0.0
2015-Mar-22 08:29N 47°34' W 122°21'0 0.0
2015-Mar-22 07:33N 47°34' W 122°21'0 0.0
2015-Mar-22 07:29N 47°34' W 122°21'0 0.0
2015-Mar-22 06:33N 47°34' W 122°21'0 0.1
2015-Mar-22 06:29N 47°34' W 122°21'0 0.0
2015-Mar-22 06:09N 47°34' W 122°21'0 0.0
2015-Mar-22 05:33N 47°34' W 122°21'0 0.0
2015-Mar-22 04:33N 47°34' W 122°21'0 0.0
2015-Mar-22 04:29N 47°34' W 122°21'0 0.0
2015-Mar-22 03:33N 47°34' W 122°21'0 0.5
2015-Mar-22 03:29N 47°34' W 122°21'0 0.0
2015-Mar-22 02:34N 47°34' W 122°21'0 0.0
2015-Mar-22 02:34N 47°34' W 122°21'0 0.0
2015-Mar-22 01:33N 47°34' W 122°21'0 0.0
2015-Mar-22 01:33N 47°34' W 122°21'0 0.0
2015-Mar-22 00:33N 47°34' W 122°21'0 0.0
2015-Mar-22 00:32N 47°34' W 122°21'0 0.0
2015-Mar-21 23:33N 47°34' W 122°21'0 0.0
2015-Mar-21 23:32N 47°34' W 122°21'0 0.0
2015-Mar-21 22:33N 47°34' W 122°21'0 0.0
2015-Mar-21 22:32N 47°34' W 122°21'0 0.0
2015-Mar-21 21:33N 47°34' W 122°21'0 0.0
2015-Mar-21 21:32N 47°34' W 122°21'0 0.0
2015-Mar-21 20:33N 47°34' W 122°21'0 0.0
2015-Mar-21 20:32N 47°34' W 122°21'0 0.1
2015-Mar-21 19:33N 47°34' W 122°21'0 0.0
2015-Mar-21 19:32N 47°34' W 122°21'3 3.1
2015-Mar-21 18:33N 47°35' W 122°25'0 6.2
2015-Mar-21 18:32N 47°35' W 122°25'6 6.6
2015-Mar-21 17:33N 47°29' W 122°24'1 6.8
2015-Mar-21 17:25N 47°28' W 122°24'6 6.7
2015-Mar-21 16:33N 47°23' W 122°21'6 6.4
2015-Mar-21 15:33N 47°18' W 122°27'3 3.1
2015-Mar-21 14:33N 47°16' W 122°23'0 0.0
2015-Mar-21 13:33N 47°16' W 122°23'0 0.0
2015-Mar-21 12:33N 47°16' W 122°23'0 0.0
2015-Mar-21 11:33N 47°16' W 122°23'0 0.0
2015-Mar-21 10:33N 47°16' W 122°23'0 0.0
2015-Mar-21 09:33N 47°16' W 122°23'0 0.0
2015-Mar-21 08:33N 47°16' W 122°23'0 0.0
2015-Mar-21 07:33N 47°16' W 122°23'0 0.0
2015-Mar-21 06:33N 47°16' W 122°23'0 0.0
2015-Mar-21 05:33N 47°16' W 122°23'0 0.0
2015-Mar-21 04:33N 47°16' W 122°23'0 0.0
2015-Mar-21 03:33N 47°16' W 122°23'0 0.0
2015-Mar-21 02:33N 47°16' W 122°23'0 0.0
2015-Mar-21 01:33N 47°16' W 122°23'0 0.0
2015-Mar-21 00:33N 47°16' W 122°23'0 0.0
2015-Mar-20 23:33N 47°16' W 122°23'0 0.0
2015-Mar-20 22:33N 47°16' W 122°23'0 0.0
2015-Mar-20 21:33N 47°16' W 122°23'0 0.0
2015-Mar-20 20:33N 47°16' W 122°23'0 0.0
2015-Mar-20 19:33N 47°16' W 122°23'0 0.0
2015-Mar-20 18:33N 47°16' W 122°23'0 0.0
2015-Mar-20 17:33N 47°16' W 122°23'0 0.0
2015-Mar-20 16:33N 47°16' W 122°23'0 0.0
2015-Mar-20 15:33N 47°16' W 122°23'0 0.0
2015-Mar-20 14:33N 47°16' W 122°23'0 0.0
2015-Mar-20 13:33N 47°16' W 122°23'0 0.0
2015-Mar-20 12:33N 47°16' W 122°23'0 0.0
2015-Mar-20 11:33N 47°16' W 122°23'0 0.0
2015-Mar-20 10:33N 47°16' W 122°23'0 0.0
2015-Mar-20 09:33N 47°16' W 122°23'0 0.0
2015-Mar-20 08:33N 47°16' W 122°23'0 0.0
2015-Mar-20 07:33N 47°16' W 122°23'0 0.0
2015-Mar-20 06:33N 47°16' W 122°23'0 0.0
2015-Mar-20 05:33N 47°16' W 122°23'0 0.0
2015-Mar-20 04:33N 47°16' W 122°23'0 0.0
2015-Mar-20 03:33N 47°16' W 122°23'0 0.0
2015-Mar-20 02:33N 47°16' W 122°23'0 0.0
2015-Mar-20 01:33N 47°16' W 122°23'0 0.0
2015-Mar-20 00:33N 47°16' W 122°23'0 0.0
2015-Mar-19 23:33N 47°16' W 122°23'0 0.0
2015-Mar-19 22:33N 47°16' W 122°23'0 0.0
2015-Mar-19 21:33N 47°16' W 122°23'0 0.0
2015-Mar-19 20:33N 47°16' W 122°23'0 0.0
2015-Mar-19 19:33N 47°16' W 122°23'0 0.0
2015-Mar-19 18:33N 47°16' W 122°23'0 0.0
2015-Mar-19 17:33N 47°16' W 122°23'0 0.0
2015-Mar-19 16:33N 47°16' W 122°23'0 0.0
2015-Mar-19 15:33N 47°16' W 122°23'0 0.0
2015-Mar-19 14:33N 47°16' W 122°23'0 0.0
2015-Mar-19 13:33N 47°16' W 122°23'0 0.0
2015-Mar-19 12:33N 47°16' W 122°23'0 0.0
2015-Mar-19 11:33N 47°16' W 122°23'0 0.0
2015-Mar-19 10:33N 47°16' W 122°23'0 0.0
2015-Mar-19 09:33N 47°16' W 122°23'1 1.3
2015-Mar-19 08:33N 47°16' W 122°25'0 0.0
2015-Mar-19 07:33N 47°16' W 122°25'0 0.0
2015-Mar-19 06:33N 47°16' W 122°25'0 0.0
2015-Mar-19 05:33N 47°16' W 122°25'0 0.0
2015-Mar-19 04:33N 47°16' W 122°25'0 0.0
2015-Mar-19 03:33N 47°16' W 122°25'  
Track history (hours):
 
Tides and Currents Weather Stations Pressure Air Temp Water Temp Dewpoint Dewpoint Depression Visibility Wind Speed Wind Dir Waves Ship Positions

Ernest Campbell

Owner: Campbell Leasing Company LLC, Wrangell, AK. More information available from US FCC via Universal Licensing System and Coast Guard Vessel Documentation Center.

Last reported at 2015-Mar-29 02:33 UTC. Time now 2015-Mar-29 03:09 UTC.
Position N 47°16' W 122°25'.

Length 33 m; draft 4.6 m.

Type: Tow > 200 m length. MMSI: 366882320.

Date/timePositionNaut miles runAvg speedWind from/ knotsBaromVisibWave heightAir tempDewpointWater temp
2015-Mar-29 02:33N 47°16' W 122°25'0 0.0
2015-Mar-29 01:33N 47°16' W 122°25'0 0.0
2015-Mar-29 00:33N 47°16' W 122°25'0 0.0
2015-Mar-28 23:33N 47°16' W 122°25'0 0.0
2015-Mar-28 22:33N 47°16' W 122°25'0 0.0
2015-Mar-28 21:33N 47°16' W 122°25'0 0.0
2015-Mar-28 20:33N 47°16' W 122°25'0 0.0
2015-Mar-28 19:33N 47°16' W 122°25'0 0.0
2015-Mar-28 18:33N 47°16' W 122°25'0 0.0
2015-Mar-28 17:33N 47°16' W 122°25'0 0.0
2015-Mar-28 16:33N 47°16' W 122°25'0 0.0
2015-Mar-28 15:33N 47°16' W 122°25'0 0.0
2015-Mar-28 14:33N 47°16' W 122°25'0 0.0
2015-Mar-28 13:33N 47°16' W 122°25'0 0.0
2015-Mar-28 12:33N 47°16' W 122°25'0 0.0
2015-Mar-28 11:33N 47°16' W 122°25'0 0.0
2015-Mar-28 10:33N 47°16' W 122°25'0 0.0
2015-Mar-28 09:33N 47°16' W 122°25'0 0.0
2015-Mar-28 08:33N 47°16' W 122°25'0 0.0
2015-Mar-28 07:33N 47°16' W 122°25'0 0.0
2015-Mar-28 06:33N 47°16' W 122°25'0 0.0
2015-Mar-28 05:33N 47°16' W 122°25'0 0.0
2015-Mar-28 04:33N 47°16' W 122°25'0 0.0
2015-Mar-28 03:33N 47°16' W 122°25'0 0.3
2015-Mar-28 02:33N 47°16' W 122°25'1 0.6
2015-Mar-28 01:33N 47°16' W 122°24'0 0.0
2015-Mar-28 00:33N 47°16' W 122°24'0 0.0
2015-Mar-27 23:33N 47°16' W 122°24'0 0.0
2015-Mar-27 22:33N 47°16' W 122°24'0 0.5
2015-Mar-27 21:33N 47°16' W 122°25'0 0.0
2015-Mar-27 20:33N 47°16' W 122°25'0 0.0
2015-Mar-27 19:33N 47°16' W 122°25'0 0.0
2015-Mar-27 18:33N 47°16' W 122°25'0 0.0
2015-Mar-27 17:33N 47°16' W 122°25'0 0.0
2015-Mar-27 16:33N 47°16' W 122°25'0 0.0
2015-Mar-27 15:33N 47°16' W 122°25'0 0.0
2015-Mar-27 14:33N 47°16' W 122°25'1 0.7
2015-Mar-27 13:33N 47°17' W 122°26'1 2.1
2015-Mar-27 13:00N 47°18' W 122°27'3 6.1
2015-Mar-27 12:33N 47°20' W 122°27'0 6.3
2015-Mar-27 12:29N 47°21' W 122°27'5 5.7
2015-Mar-27 11:33N 47°25' W 122°24'1 7.3
2015-Mar-27 11:29N 47°26' W 122°24'6 6.8
2015-Mar-27 10:33N 47°32' W 122°27'0 6.1
2015-Mar-27 10:30N 47°32' W 122°27'6 6.7
2015-Mar-27 09:33N 47°38' W 122°28'0 6.0
2015-Mar-27 09:30N 47°39' W 122°28'6 6.6
2015-Mar-27 08:33N 47°45' W 122°27'0 5.3
2015-Mar-27 08:30N 47°45' W 122°27'6 6.6
2015-Mar-27 07:33N 47°51' W 122°29'0 5.7
2015-Mar-27 07:30N 47°52' W 122°29'7 7.0
2015-Mar-27 06:33N 47°57' W 122°35'8 7.5
2015-Mar-27 05:32N 48°04' W 122°40'8 8.0
2015-Mar-27 04:33N 48°10' W 122°47'8 8.2
2015-Mar-27 03:33N 48°11' W 122°59'9 8.7
2015-Mar-27 02:33N 48°11' W 123°12'8 8.1
2015-Mar-27 01:33N 48°08' W 123°23'1 1.1
2015-Mar-27 00:33N 48°08' W 123°25'0 0.0
2015-Mar-26 23:33N 48°08' W 123°25'0 0.1
2015-Mar-26 22:33N 48°08' W 123°25'0 0.1
2015-Mar-26 21:32N 48°08' W 123°25'0 0.0
2015-Mar-26 20:12N 48°08' W 123°25'0 0.1
2015-Mar-26 19:32N 48°08' W 123°25'0 0.0
2015-Mar-26 18:30N 48°08' W 123°25'0 0.0
2015-Mar-26 17:33N 48°08' W 123°25'0 0.1
2015-Mar-26 16:31N 48°08' W 123°25'2 2.3
2015-Mar-26 15:33N 48°08' W 123°22'6 5.7
2015-Mar-26 14:31N 48°11' W 123°14'6 5.9
2015-Mar-26 13:28N 48°13' W 123°05'8 6.7
2015-Mar-26 12:20N 48°12' W 122°54'13 7.1
2015-Mar-26 10:31N 48°05' W 122°38'7 8.5
2015-Mar-26 09:40N 47°58' W 122°34'1 8.8
2015-Mar-26 09:33N 47°57' W 122°33'1 7.4
2015-Mar-26 09:25N 47°57' W 122°32'7 7.5
2015-Mar-26 08:33N 47°51' W 122°27'0 6.6
2015-Mar-26 08:30N 47°51' W 122°27'7 7.6
2015-Mar-26 07:33N 47°43' W 122°26'0 6.7
2015-Mar-26 07:30N 47°43' W 122°26'6 6.7
2015-Mar-26 06:33N 47°37' W 122°24'0 5.7
2015-Mar-26 06:30N 47°37' W 122°23'2 4.8
2015-Mar-26 06:10N 47°36' W 122°21'2 3.1
2015-Mar-26 05:33N 47°34' W 122°21'0 0.0
2015-Mar-26 04:33N 47°34' W 122°21'0 0.1
2015-Mar-26 04:30N 47°34' W 122°21'0 0.0
2015-Mar-26 03:33N 47°34' W 122°21'0 0.0
2015-Mar-26 03:29N 47°34' W 122°21'0 0.0
2015-Mar-26 02:33N 47°34' W 122°21'0 0.0
2015-Mar-26 02:30N 47°34' W 122°21'0 0.0
2015-Mar-26 01:33N 47°34' W 122°21'0 0.0
2015-Mar-26 01:30N 47°34' W 122°21'0 0.0
2015-Mar-26 00:33N 47°34' W 122°21'0 0.0
2015-Mar-26 00:30N 47°34' W 122°21'0 0.0
2015-Mar-25 23:33N 47°34' W 122°21'0 0.0
2015-Mar-25 23:30N 47°34' W 122°21'0 0.0
2015-Mar-25 22:33N 47°34' W 122°21'0 0.0
2015-Mar-25 22:30N 47°34' W 122°21'0 0.0
2015-Mar-25 21:33N 47°34' W 122°21'0 0.0
2015-Mar-25 21:29N 47°34' W 122°21'0 0.0
2015-Mar-25 20:33N 47°34' W 122°21'0 0.0
2015-Mar-25 20:24N 47°34' W 122°21'0 0.0
2015-Mar-25 19:33N 47°34' W 122°21'0 0.0
2015-Mar-25 19:29N 47°34' W 122°21'0 0.0
2015-Mar-25 18:33N 47°34' W 122°21'0 0.0
2015-Mar-25 18:29N 47°34' W 122°21'0 0.0
2015-Mar-25 17:33N 47°34' W 122°21'0 0.0
2015-Mar-25 17:28N 47°34' W 122°21'0 0.0
2015-Mar-25 16:33N 47°34' W 122°21'0 0.1
2015-Mar-25 16:29N 47°34' W 122°21'0 0.0
2015-Mar-25 15:33N 47°34' W 122°21'0 0.0
2015-Mar-25 15:29N 47°34' W 122°21'0 0.0
2015-Mar-25 14:33N 47°34' W 122°21'0 0.0
2015-Mar-25 13:46N 47°34' W 122°21'0 0.0
2015-Mar-25 13:33N 47°34' W 122°21'0 0.2
2015-Mar-25 13:32N 47°34' W 122°21'0 0.0
2015-Mar-25 12:33N 47°34' W 122°21'0 0.0
2015-Mar-25 12:32N 47°34' W 122°21'0 0.0
2015-Mar-25 11:33N 47°34' W 122°21'0 0.0
2015-Mar-25 11:31N 47°34' W 122°21'0 0.0
2015-Mar-25 10:33N 47°34' W 122°21'0 0.2
2015-Mar-25 10:31N 47°34' W 122°21'0 0.0
2015-Mar-25 09:33N 47°34' W 122°21'0 1.0
2015-Mar-25 09:31N 47°34' W 122°21'0 0.0
2015-Mar-25 08:33N 47°34' W 122°21'0 0.0
2015-Mar-25 08:31N 47°34' W 122°21'0 0.0
2015-Mar-25 07:33N 47°34' W 122°21'0 0.1
2015-Mar-25 07:31N 47°34' W 122°21'0 0.0
2015-Mar-25 06:33N 47°34' W 122°21'0 0.0
2015-Mar-25 06:31N 47°34' W 122°21'0 0.0
2015-Mar-25 05:56N 47°34' W 122°21'0 0.0
2015-Mar-25 05:33N 47°34' W 122°21'0 0.0
2015-Mar-25 04:33N 47°34' W 122°21'0 0.0
2015-Mar-25 04:31N 47°34' W 122°21'0 0.0
2015-Mar-25 03:33N 47°34' W 122°21'0 0.0
2015-Mar-25 03:31N 47°34' W 122°21'0 0.0
2015-Mar-25 02:33N 47°34' W 122°21'0 0.0
2015-Mar-25 02:30N 47°34' W 122°21'0 0.0
2015-Mar-25 01:33N 47°34' W 122°21'0 0.0
2015-Mar-25 01:30N 47°34' W 122°21'0 0.0
2015-Mar-25 00:33N 47°34' W 122°21'0 0.1
2015-Mar-25 00:30N 47°34' W 122°21'0 0.0
2015-Mar-24 23:33N 47°34' W 122°21'0 0.0
2015-Mar-24 23:30N 47°34' W 122°21'0 0.0
2015-Mar-24 22:33N 47°34' W 122°21'0 0.1
2015-Mar-24 22:30N 47°34' W 122°21'0 0.0
2015-Mar-24 21:33N 47°34' W 122°21'0 0.1
2015-Mar-24 21:30N 47°34' W 122°21'0 0.0
2015-Mar-24 20:33N 47°34' W 122°21'0 0.0
2015-Mar-24 20:30N 47°34' W 122°21'0 0.0
2015-Mar-24 19:33N 47°34' W 122°21'0 0.1
2015-Mar-24 19:29N 47°34' W 122°21'0 0.0
2015-Mar-24 18:33N 47°34' W 122°21'0 0.0
2015-Mar-24 18:30N 47°34' W 122°21'0 0.0
2015-Mar-24 17:33N 47°34' W 122°21'0 0.0
2015-Mar-24 17:29N 47°34' W 122°21'0 0.0
2015-Mar-24 16:33N 47°34' W 122°21'0 0.1
2015-Mar-24 16:29N 47°34' W 122°21'0 0.0
2015-Mar-24 15:33N 47°34' W 122°21'0 0.0
2015-Mar-24 15:29N 47°34' W 122°21'0 0.0
2015-Mar-24 14:33N 47°34' W 122°21'0 0.0
2015-Mar-24 14:29N 47°34' W 122°21'0 0.0
2015-Mar-24 13:33N 47°34' W 122°21'0 0.0
2015-Mar-24 13:29N 47°34' W 122°21'0 0.0
2015-Mar-24 12:33N 47°34' W 122°21'0 0.1
2015-Mar-24 12:29N 47°34' W 122°21'0 0.0
2015-Mar-24 11:33N 47°34' W 122°21'0 0.0
2015-Mar-24 11:29N 47°34' W 122°21'0 0.0
2015-Mar-24 10:33N 47°34' W 122°21'0 0.1
2015-Mar-24 10:29N 47°34' W 122°21'0 0.0
2015-Mar-24 09:33N 47°34' W 122°21'0 0.0
2015-Mar-24 09:07N 47°34' W 122°21'0 0.0
2015-Mar-24 08:33N 47°34' W 122°21'0 0.0
2015-Mar-24 08:31N 47°34' W 122°21'0 0.0
2015-Mar-24 07:33N 47°34' W 122°21'0 0.0
2015-Mar-24 07:31N 47°34' W 122°21'0 0.0
2015-Mar-24 06:33N 47°34' W 122°21'0 0.0
2015-Mar-24 06:31N 47°34' W 122°21'0 0.0
2015-Mar-24 06:06N 47°34' W 122°21'0 0.0
2015-Mar-24 05:33N 47°34' W 122°21'0 0.0
2015-Mar-24 04:33N 47°34' W 122°21'0 0.2
2015-Mar-24 04:31N 47°34' W 122°21'0 0.0
2015-Mar-24 03:33N 47°34' W 122°21'0 0.0
2015-Mar-24 03:31N 47°34' W 122°21'0 0.0
2015-Mar-24 02:33N 47°34' W 122°21'0 0.1
2015-Mar-24 02:31N 47°34' W 122°21'0 0.0
2015-Mar-24 01:33N 47°34' W 122°21'0 0.0
2015-Mar-24 01:31N 47°34' W 122°21'0 0.0
2015-Mar-24 00:33N 47°34' W 122°21'0 0.0
2015-Mar-24 00:31N 47°34' W 122°21'0 0.0
2015-Mar-23 23:33N 47°34' W 122°21'0 0.0
2015-Mar-23 23:30N 47°34' W 122°21'0 0.0
2015-Mar-23 22:33N 47°34' W 122°21'0 0.0
2015-Mar-23 22:30N 47°34' W 122°21'1 0.6
2015-Mar-23 21:33N 47°35' W 122°21'0 0.0
2015-Mar-23 21:30N 47°35' W 122°21'0 0.2
2015-Mar-23 20:33N 47°35' W 122°21'0 1.7
2015-Mar-23 20:30N 47°35' W 122°21'0 0.3
2015-Mar-23 19:33N 47°34' W 122°21'0 0.0
2015-Mar-23 19:30N 47°34' W 122°21'0 0.0
2015-Mar-23 18:33N 47°34' W 122°21'0 0.0
2015-Mar-23 18:30N 47°34' W 122°21'0 0.0
2015-Mar-23 17:33N 47°34' W 122°21'0 0.6
2015-Mar-23 17:30N 47°34' W 122°21'0 0.0
2015-Mar-23 16:33N 47°34' W 122°21'0 0.0
2015-Mar-23 16:30N 47°34' W 122°21'0 0.0
2015-Mar-23 15:33N 47°34' W 122°21'0 0.0
2015-Mar-23 15:30N 47°34' W 122°21'1 0.6
2015-Mar-23 14:33N 47°35' W 122°21'0 1.7
2015-Mar-23 14:24N 47°35' W 122°21'0 0.3
2015-Mar-23 13:33N 47°34' W 122°21'0 0.0
2015-Mar-23 13:29N 47°34' W 122°21'0 0.0
2015-Mar-23 12:33N 47°34' W 122°21'0 0.5
2015-Mar-23 12:29N 47°34' W 122°21'0 0.0
2015-Mar-23 11:33N 47°34' W 122°21'0 0.5
2015-Mar-23 11:29N 47°34' W 122°21'0 0.0
2015-Mar-23 10:33N 47°34' W 122°21'0 0.5
2015-Mar-23 10:29N 47°34' W 122°21'0 0.0
2015-Mar-23 09:33N 47°34' W 122°21'0 0.0
2015-Mar-23 09:29N 47°34' W 122°21'0 0.0
2015-Mar-23 08:33N 47°34' W 122°21'0 0.0
2015-Mar-23 08:18N 47°34' W 122°21'0 0.0
2015-Mar-23 07:33N 47°34' W 122°21'0 0.0
2015-Mar-23 07:33N 47°34' W 122°21'0 0.0
2015-Mar-23 06:33N 47°34' W 122°21'0 2.2
2015-Mar-23 06:32N 47°34' W 122°21'0 0.1
2015-Mar-23 06:02N 47°34' W 122°21'0 0.1
2015-Mar-23 05:33N 47°34' W 122°21'0 0.0
2015-Mar-23 04:33N 47°34' W 122°21'0 0.0
2015-Mar-23 04:32N 47°34' W 122°21'0 0.0
2015-Mar-23 03:33N 47°34' W 122°21'0 0.0
2015-Mar-23 03:17N 47°34' W 122°21'0 0.1
2015-Mar-23 02:33N 47°34' W 122°21'0 0.4
2015-Mar-23 02:27N 47°34' W 122°21'0 0.0
2015-Mar-23 01:33N 47°34' W 122°21'0 1.1
2015-Mar-23 01:31N 47°34' W 122°21'0 0.0
2015-Mar-23 00:33N 47°34' W 122°21'0 0.0
2015-Mar-23 00:31N 47°34' W 122°21'0 0.0
2015-Mar-22 23:33N 47°34' W 122°21'0 0.0
2015-Mar-22 23:31N 47°34' W 122°21'0 0.0
2015-Mar-22 22:33N 47°34' W 122°21'0 0.0
2015-Mar-22 22:31N 47°34' W 122°21'0 0.0
2015-Mar-22 21:33N 47°34' W 122°21'0 0.9
2015-Mar-22 21:31N 47°34' W 122°21'0 0.0
2015-Mar-22 20:33N 47°34' W 122°21'0 0.0
2015-Mar-22 20:31N 47°34' W 122°21'0 0.0
2015-Mar-22 19:33N 47°34' W 122°21'0 0.0
2015-Mar-22 19:31N 47°34' W 122°21'0 0.0
2015-Mar-22 18:33N 47°34' W 122°21'0 0.9
2015-Mar-22 18:31N 47°34' W 122°21'0 0.0
2015-Mar-22 17:33N 47°34' W 122°21'0 0.8
2015-Mar-22 17:31N 47°34' W 122°21'0 0.0
2015-Mar-22 16:33N 47°34' W 122°21'0 0.0
2015-Mar-22 16:30N 47°34' W 122°21'0 0.0
2015-Mar-22 15:33N 47°34' W 122°21'0 0.0
2015-Mar-22 15:29N 47°34' W 122°21'0 0.0
2015-Mar-22 14:33N 47°34' W 122°21'0 0.0
2015-Mar-22 14:30N 47°34' W 122°21'0 0.0
2015-Mar-22 13:33N 47°34' W 122°21'0 0.8
2015-Mar-22 13:30N 47°34' W 122°21'0 0.0
2015-Mar-22 12:33N 47°34' W 122°21'0 0.7
2015-Mar-22 12:30N 47°34' W 122°21'0 0.0
2015-Mar-22 11:33N 47°34' W 122°21'0 0.7
2015-Mar-22 11:30N 47°34' W 122°21'0 0.0
2015-Mar-22 10:33N 47°34' W 122°21'0 0.1
2015-Mar-22 10:14N 47°34' W 122°21'0 0.1
2015-Mar-22 09:33N 47°34' W 122°21'0 0.6
2015-Mar-22 09:29N 47°34' W 122°21'0 0.0
2015-Mar-22 08:33N 47°34' W 122°21'0 0.0
2015-Mar-22 08:29N 47°34' W 122°21'0 0.0
2015-Mar-22 07:33N 47°34' W 122°21'0 0.0
2015-Mar-22 07:29N 47°34' W 122°21'0 0.0
2015-Mar-22 06:33N 47°34' W 122°21'0 0.1
2015-Mar-22 06:29N 47°34' W 122°21'0 0.0
2015-Mar-22 06:09N 47°34' W 122°21'0 0.0
2015-Mar-22 05:33N 47°34' W 122°21'0 0.0
2015-Mar-22 04:33N 47°34' W 122°21'0 0.0
2015-Mar-22 04:29N 47°34' W 122°21'0 0.0
2015-Mar-22 03:33N 47°34' W 122°21'0 0.5
2015-Mar-22 03:29N 47°34' W 122°21'0 0.0
2015-Mar-22 02:34N 47°34' W 122°21'0 0.0
2015-Mar-22 02:34N 47°34' W 122°21'0 0.0
2015-Mar-22 01:33N 47°34' W 122°21'0 0.0
2015-Mar-22 01:33N 47°34' W 122°21'0 0.0
2015-Mar-22 00:33N 47°34' W 122°21'0 0.0
2015-Mar-22 00:32N 47°34' W 122°21'0 0.0
2015-Mar-21 23:33N 47°34' W 122°21'0 0.0
2015-Mar-21 23:32N 47°34' W 122°21'0 0.0
2015-Mar-21 22:33N 47°34' W 122°21'0 0.0
2015-Mar-21 22:32N 47°34' W 122°21'0 0.0
2015-Mar-21 21:33N 47°34' W 122°21'0 0.0
2015-Mar-21 21:32N 47°34' W 122°21'0 0.0
2015-Mar-21 20:33N 47°34' W 122°21'0 0.0
2015-Mar-21 20:32N 47°34' W 122°21'0 0.1
2015-Mar-21 19:33N 47°34' W 122°21'0 0.0
2015-Mar-21 19:32N 47°34' W 122°21'3 3.1
2015-Mar-21 18:33N 47°35' W 122°25'0 6.2
2015-Mar-21 18:32N 47°35' W 122°25'6 6.6
2015-Mar-21 17:33N 47°29' W 122°24'1 6.8
2015-Mar-21 17:25N 47°28' W 122°24'6 6.7
2015-Mar-21 16:33N 47°23' W 122°21'6 6.4
2015-Mar-21 15:33N 47°18' W 122°27'3 3.1
2015-Mar-21 14:33N 47°16' W 122°23'0 0.0
2015-Mar-21 13:33N 47°16' W 122°23'0 0.0
2015-Mar-21 12:33N 47°16' W 122°23'0 0.0
2015-Mar-21 11:33N 47°16' W 122°23'0 0.0
2015-Mar-21 10:33N 47°16' W 122°23'0 0.0
2015-Mar-21 09:33N 47°16' W 122°23'0 0.0
2015-Mar-21 08:33N 47°16' W 122°23'0 0.0
2015-Mar-21 07:33N 47°16' W 122°23'0 0.0
2015-Mar-21 06:33N 47°16' W 122°23'0 0.0
2015-Mar-21 05:33N 47°16' W 122°23'0 0.0
2015-Mar-21 04:33N 47°16' W 122°23'0 0.0
2015-Mar-21 03:33N 47°16' W 122°23'0 0.0
2015-Mar-21 02:33N 47°16' W 122°23'0 0.0
2015-Mar-21 01:33N 47°16' W 122°23'0 0.0
2015-Mar-21 00:33N 47°16' W 122°23'0 0.0
2015-Mar-20 23:33N 47°16' W 122°23'0 0.0
2015-Mar-20 22:33N 47°16' W 122°23'0 0.0
2015-Mar-20 21:33N 47°16' W 122°23'0 0.0
2015-Mar-20 20:33N 47°16' W 122°23'0 0.0
2015-Mar-20 19:33N 47°16' W 122°23'0 0.0
2015-Mar-20 18:33N 47°16' W 122°23'0 0.0
2015-Mar-20 17:33N 47°16' W 122°23'0 0.0
2015-Mar-20 16:33N 47°16' W 122°23'0 0.0
2015-Mar-20 15:33N 47°16' W 122°23'0 0.0
2015-Mar-20 14:33N 47°16' W 122°23'0 0.0
2015-Mar-20 13:33N 47°16' W 122°23'0 0.0
2015-Mar-20 12:33N 47°16' W 122°23'0 0.0
2015-Mar-20 11:33N 47°16' W 122°23'0 0.0
2015-Mar-20 10:33N 47°16' W 122°23'0 0.0
2015-Mar-20 09:33N 47°16' W 122°23'0 0.0
2015-Mar-20 08:33N 47°16' W 122°23'0 0.0
2015-Mar-20 07:33N 47°16' W 122°23'0 0.0
2015-Mar-20 06:33N 47°16' W 122°23'0 0.0
2015-Mar-20 05:33N 47°16' W 122°23'0 0.0
2015-Mar-20 04:33N 47°16' W 122°23'0 0.0
2015-Mar-20 03:33N 47°16' W 122°23'0 0.0
2015-Mar-20 02:33N 47°16' W 122°23'0 0.0
2015-Mar-20 01:33N 47°16' W 122°23'0 0.0
2015-Mar-20 00:33N 47°16' W 122°23'0 0.0
2015-Mar-19 23:33N 47°16' W 122°23'0 0.0
2015-Mar-19 22:33N 47°16' W 122°23'0 0.0
2015-Mar-19 21:33N 47°16' W 122°23'0 0.0
2015-Mar-19 20:33N 47°16' W 122°23'0 0.0
2015-Mar-19 19:33N 47°16' W 122°23'0 0.0
2015-Mar-19 18:33N 47°16' W 122°23'0 0.0
2015-Mar-19 17:33N 47°16' W 122°23'0 0.0
2015-Mar-19 16:33N 47°16' W 122°23'0 0.0
2015-Mar-19 15:33N 47°16' W 122°23'0 0.0
2015-Mar-19 14:33N 47°16' W 122°23'0 0.0
2015-Mar-19 13:33N 47°16' W 122°23'0 0.0
2015-Mar-19 12:33N 47°16' W 122°23'0 0.0
2015-Mar-19 11:33N 47°16' W 122°23'0 0.0
2015-Mar-19 10:33N 47°16' W 122°23'0 0.0
2015-Mar-19 09:33N 47°16' W 122°23'1 1.3
2015-Mar-19 08:33N 47°16' W 122°25'0 0.0
2015-Mar-19 07:33N 47°16' W 122°25'0 0.0
2015-Mar-19 06:33N 47°16' W 122°25'0 0.0
2015-Mar-19 05:33N 47°16' W 122°25'0 0.0
2015-Mar-19 04:33N 47°16' W 122°25'0 0.0
2015-Mar-19 03:33N 47°16' W 122°25'  

Dump ship's entire track history